Terminal Aerodrome Forecast
Issued by NWS

Current Version | Previous Version | Text Only | Print | Product List | Glossary On
Versions: 1 2 3 4 5 6 7 8 9 10 11 12
000
FTUS46 KMTR 041720
TAFSJC
TAF
KSJC 041720Z 0418/0518 31004KT P6SM FEW015
     FM042100 31013KT P6SM SKC
     FM050400 30008KT P6SM SKC
     FM051000 VRB04KT P6SM BKN012
     FM051200 VRB03KT P6SM OVC011
     FM051630 VRB04KT P6SM SCT014=

USA.gov is the U.S. government's official web portal to all federal, state and local government web resources and services.